createdAt,value
2017-08-14T00:01:01.981Z,1017.11
2017-08-14T00:02:11.292Z,1017.1
2017-08-14T00:03:21.219Z,1017.11
2017-08-14T00:04:31.163Z,1017.13
2017-08-14T00:05:41.086Z,1017.1
2017-08-14T00:06:51.308Z,1017.13
2017-08-14T00:08:00.646Z,1017.13
2017-08-14T00:09:09.941Z,1017.1
2017-08-14T00:10:20.167Z,1017.11
2017-08-14T00:11:30.100Z,1017.08
2017-08-14T00:12:39.736Z,1017.12
2017-08-14T00:13:49.975Z,1017.11
2017-08-14T00:14:59.593Z,1017.09
2017-08-14T00:16:09.532Z,1017.08
2017-08-14T00:17:18.847Z,1017.07
2017-08-14T00:18:28.475Z,1017.04
2017-08-14T00:19:38.702Z,1017.06
2017-08-14T00:20:48.947Z,1017.06
2017-08-14T00:21:58.622Z,1017.09
2017-08-14T00:23:08.594Z,1017.08
2017-08-14T00:24:18.206Z,1017.11
2017-08-14T00:25:28.148Z,1017.07
2017-08-14T00:26:38.072Z,1017.1
2017-08-14T00:27:48.319Z,1017.12
2017-08-14T00:28:58.572Z,1017.1
2017-08-14T00:30:08.826Z,1017.1
2017-08-14T00:31:18.754Z,1017.11
2017-08-14T00:32:28.700Z,1017.07
2017-08-14T00:33:38.950Z,1017.08
2017-08-14T00:34:48.869Z,1017.07
2017-08-14T00:35:58.493Z,1017.05
2017-08-14T00:37:08.769Z,1017.03
2017-08-14T00:38:18.406Z,1017.03
2017-08-14T00:39:28.632Z,1017.04
2017-08-14T00:40:38.621Z,1017.03
2017-08-14T00:41:48.620Z,1017
2017-08-14T00:42:58.547Z,1017.06
2017-08-14T00:44:08.511Z,1017.02
2017-08-14T00:45:18.786Z,1017.01
2017-08-14T00:46:28.710Z,1017.06
2017-08-14T00:47:38.657Z,1017.04
2017-08-14T00:48:48.266Z,1017.04
2017-08-14T00:49:58.193Z,1017.04
2017-08-14T00:51:20.612Z,1017.06
2017-08-14T00:52:29.939Z,1017.09
2017-08-14T00:53:39.868Z,1017.1
2017-08-14T00:54:50.088Z,1017.07
2017-08-14T00:56:00.013Z,1017.11
2017-08-14T00:57:09.949Z,1017.1
2017-08-14T00:58:20.234Z,1017.1
2017-08-14T00:59:30.469Z,1017.09
2017-08-14T01:00:40.395Z,1017.1
2017-08-14T01:01:50.640Z,1017.05
2017-08-14T01:03:00.885Z,1017.06
2017-08-14T01:04:11.150Z,1017.05
2017-08-14T01:05:20.469Z,1017.03
2017-08-14T01:06:30.391Z,1017.04
2017-08-14T01:07:40.325Z,1017.04
2017-08-14T01:08:50.778Z,1017.06
2017-08-14T01:10:00.534Z,1017.03
2017-08-14T01:11:10.458Z,1017.01
2017-08-14T01:12:20.372Z,1017.03
2017-08-14T01:13:30.290Z,1017.02
2017-08-14T01:14:40.212Z,1017.01
2017-08-14T01:15:50.437Z,1016.97
2017-08-14T01:17:00.055Z,1016.98
2017-08-14T01:18:10.280Z,1017.01
2017-08-14T01:19:20.500Z,1017.01
2017-08-14T01:20:30.729Z,1016.98
2017-08-14T01:21:40.696Z,1016.97
2017-08-14T01:22:50.937Z,1016.94
2017-08-14T01:24:00.885Z,1016.9
2017-08-14T01:25:11.119Z,1016.92
2017-08-14T01:26:21.051Z,1016.9
2017-08-14T01:27:30.671Z,1016.91
2017-08-14T01:28:40.612Z,1016.91
2017-08-14T01:29:49.915Z,1016.88
2017-08-14T01:31:00.149Z,1016.89
2017-08-14T01:32:10.370Z,1016.88
2017-08-14T01:33:20.137Z,1016.86
2017-08-14T01:34:30.068Z,1016.89
2017-08-14T01:35:40.290Z,1016.89
2017-08-14T01:36:50.209Z,1016.88
2017-08-14T01:38:00.145Z,1016.89
2017-08-14T01:39:10.524Z,1016.85
2017-08-14T01:40:20.448Z,1016.89
2017-08-14T01:41:29.751Z,1016.84
2017-08-14T01:42:39.663Z,1016.83
2017-08-14T01:43:49.585Z,1016.82
2017-08-14T01:44:59.574Z,1016.84
2017-08-14T01:46:09.520Z,1016.8
2017-08-14T01:47:18.827Z,1016.8
2017-08-14T01:48:28.762Z,1016.8
2017-08-14T01:49:39.001Z,1016.79
2017-08-14T01:50:49.076Z,1016.79
2017-08-14T01:51:58.996Z,1016.76
2017-08-14T01:53:08.306Z,1016.72
2017-08-14T01:54:18.556Z,1016.72
2017-08-14T01:55:28.472Z,1016.72
2017-08-14T01:56:38.550Z,1016.72
2017-08-14T01:57:48.469Z,1016.69
2017-08-14T01:58:58.714Z,1016.71
2017-08-14T02:00:08.947Z,1016.69
2017-08-14T02:01:18.578Z,1016.71
2017-08-14T02:02:28.818Z,1016.67
2017-08-14T02:03:38.744Z,1016.69
2017-08-14T02:04:48.994Z,1016.67
2017-08-14T02:05:59.236Z,1016.69
2017-08-14T02:07:09.158Z,1016.69
2017-08-14T02:08:19.246Z,1016.69
2017-08-14T02:09:29.155Z,1016.68
2017-08-14T02:10:39.116Z,1016.69
2017-08-14T02:11:49.033Z,1016.68
2017-08-14T02:12:58.942Z,1016.73
2017-08-14T02:14:08.991Z,1016.71
2017-08-14T02:15:18.927Z,1016.71
2017-08-14T02:16:28.549Z,1016.68
2017-08-14T02:17:38.488Z,1016.68
2017-08-14T02:18:48.712Z,1016.63
2017-08-14T02:19:58.629Z,1016.63
2017-08-14T02:21:08.569Z,1016.65
2017-08-14T02:22:18.496Z,1016.65
2017-08-14T02:23:28.108Z,1016.69
2017-08-14T02:24:38.346Z,1016.68
2017-08-14T02:25:48.677Z,1016.67
2017-08-14T02:26:58.291Z,1016.67
2017-08-14T02:28:08.212Z,1016.65
2017-08-14T02:29:18.130Z,1016.65
2017-08-14T02:30:27.423Z,1016.65
2017-08-14T02:31:37.161Z,1016.61
2017-08-14T02:32:46.476Z,1016.59
2017-08-14T02:33:56.702Z,1016.59
2017-08-14T02:35:06.620Z,1016.58
2017-08-14T02:36:16.234Z,1016.55
2017-08-14T02:37:26.164Z,1016.55
2017-08-14T02:38:36.078Z,1016.54
2017-08-14T02:39:46.301Z,1016.51
2017-08-14T02:40:56.544Z,1016.51
2017-08-14T02:42:06.800Z,1016.52
2017-08-14T02:43:17.188Z,1016.48
2017-08-14T02:44:27.120Z,1016.5
2017-08-14T02:45:37.349Z,1016.48
2017-08-14T02:46:47.593Z,1016.5
2017-08-14T02:47:57.515Z,1016.49
2017-08-14T02:49:07.891Z,1016.52
2017-08-14T02:50:18.109Z,1016.48
2017-08-14T02:51:28.030Z,1016.48
2017-08-14T02:52:37.665Z,1016.49
2017-08-14T02:53:47.590Z,1016.46
2017-08-14T02:54:57.506Z,1016.44
2017-08-14T02:56:07.443Z,1016.46
2017-08-14T02:57:17.056Z,1016.45
2017-08-14T02:58:26.970Z,1016.49
2017-08-14T02:59:36.909Z,1016.46
2017-08-14T03:00:46.824Z,1016.49
2017-08-14T03:01:56.481Z,1016.5
2017-08-14T03:03:06.706Z,1016.45
2017-08-14T03:04:16.947Z,1016.45
2017-08-14T03:05:27.182Z,1016.49
2017-08-14T03:06:37.263Z,1016.49
2017-08-14T03:07:47.488Z,1016.51
2017-08-14T03:08:57.722Z,1016.47
2017-08-14T03:10:07.957Z,1016.48
2017-08-14T03:11:17.581Z,1016.46
2017-08-14T03:12:27.493Z,1016.49
2017-08-14T03:13:37.113Z,1016.49
2017-08-14T03:14:47.047Z,1016.51
2017-08-14T03:15:56.986Z,1016.5
2017-08-14T03:17:06.910Z,1016.51
2017-08-14T03:18:17.444Z,1016.5
2017-08-14T03:19:27.670Z,1016.47
2017-08-14T03:20:37.884Z,1016.5
2017-08-14T03:21:47.814Z,1016.44
2017-08-14T03:22:58.039Z,1016.45
2017-08-14T03:24:07.811Z,1016.46
2017-08-14T03:25:18.269Z,1016.44
2017-08-14T03:26:27.584Z,1016.43
2017-08-14T03:27:37.194Z,1016.41
2017-08-14T03:28:46.814Z,1016.42
2017-08-14T03:29:56.888Z,1016.42
2017-08-14T03:31:06.817Z,1016.42
2017-08-14T03:32:16.734Z,1016.39
2017-08-14T03:33:26.975Z,1016.39
2017-08-14T03:34:37.227Z,1016.34
2017-08-14T03:35:47.610Z,1016.35
2017-08-14T03:36:57.842Z,1016.34
2017-08-14T03:38:07.160Z,1016.36
2017-08-14T03:39:16.510Z,1016.37
2017-08-14T03:40:26.744Z,1016.31
2017-08-14T03:41:36.965Z,1016.28
2017-08-14T03:42:47.211Z,1016.27
2017-08-14T03:43:56.514Z,1016.29
2017-08-14T03:45:06.477Z,1016.25
2017-08-14T03:46:16.708Z,1016.25
2017-08-14T03:47:26.682Z,1016.21
2017-08-14T03:48:36.645Z,1016.25
2017-08-14T03:49:45.972Z,1016.21
2017-08-14T03:50:55.619Z,1016.22
2017-08-14T03:52:05.858Z,1016.23
2017-08-14T03:53:15.915Z,1016.23
2017-08-14T03:54:26.133Z,1016.24
2017-08-14T03:55:36.378Z,1016.22
2017-08-14T03:56:45.997Z,1016.23
2017-08-14T03:57:56.252Z,1016.21
2017-08-14T03:59:06.331Z,1016.22
2017-08-14T04:00:16.575Z,1016.2
2017-08-14T04:01:26.512Z,1016.19
2017-08-14T04:02:36.148Z,1016.18
2017-08-14T04:03:46.368Z,1016.16
2017-08-14T04:04:56.442Z,1016.18
2017-08-14T04:06:06.391Z,1016.19
2017-08-14T04:07:16.315Z,1016.17
2017-08-14T04:08:26.248Z,1016.21
2017-08-14T04:09:35.860Z,1016.21
2017-08-14T04:10:46.235Z,1016.23
2017-08-14T04:11:56.147Z,1016.2
2017-08-14T04:13:05.767Z,1016.2
2017-08-14T04:14:15.682Z,1016.19
2017-08-14T04:15:25.910Z,1016.21
2017-08-14T04:16:35.995Z,1016.22
2017-08-14T04:17:46.224Z,1016.22
2017-08-14T04:18:56.470Z,1016.24
2017-08-14T04:20:06.407Z,1016.24
2017-08-14T04:21:16.634Z,1016.23
2017-08-14T04:22:27.013Z,1016.25
2017-08-14T04:23:37.272Z,1016.23
2017-08-14T04:24:47.196Z,1016.23
2017-08-14T04:25:57.420Z,1016.23
2017-08-14T04:27:07.352Z,1016.25
2017-08-14T04:28:17.283Z,1016.22
2017-08-14T04:29:26.892Z,1016.21
2017-08-14T04:30:36.821Z,1016.23
2017-08-14T04:31:47.054Z,1016.25
2017-08-14T04:32:56.688Z,1016.19
2017-08-14T04:34:06.607Z,1016.24
2017-08-14T04:35:16.540Z,1016.26
2017-08-14T04:36:25.865Z,1016.25
2017-08-14T04:37:36.099Z,1016.25
2017-08-14T04:38:45.726Z,1016.29
2017-08-14T04:39:56.108Z,1016.34
2017-08-14T04:41:06.026Z,1016.33
2017-08-14T04:42:16.265Z,1016.31
2017-08-14T04:43:26.508Z,1016.32
2017-08-14T04:44:36.453Z,1016.29
2017-08-14T04:45:46.181Z,1016.24
2017-08-14T04:46:56.147Z,1016.27
2017-08-14T04:48:06.068Z,1016.25
2017-08-14T04:49:15.680Z,1016.29
2017-08-14T04:50:25.598Z,1016.26
2017-08-14T04:51:35.672Z,1016.29
2017-08-14T04:52:45.284Z,1016.3
2017-08-14T04:53:55.534Z,1016.25
2017-08-14T04:55:05.766Z,1016.31
2017-08-14T04:56:15.996Z,1016.29
2017-08-14T04:57:26.390Z,1016.31
2017-08-14T04:58:36.330Z,1016.29
2017-08-14T04:59:45.950Z,1016.28
2017-08-14T05:00:55.571Z,1016.31
2017-08-14T05:02:05.822Z,1016.31
2017-08-14T05:03:16.174Z,1016.29
2017-08-14T05:04:25.472Z,1016.3
2017-08-14T05:05:35.078Z,1016.24
2017-08-14T05:06:44.989Z,1016.23
2017-08-14T05:07:55.214Z,1016.23
2017-08-14T05:09:05.286Z,1016.2
2017-08-14T05:10:14.904Z,1016.23
2017-08-14T05:11:24.826Z,1016.2
2017-08-14T05:12:34.754Z,1016.21
2017-08-14T05:13:44.994Z,1016.25
2017-08-14T05:14:54.478Z,1016.21
2017-08-14T05:16:04.407Z,1016.21
2017-08-14T05:17:14.332Z,1016.24
2017-08-14T05:18:23.640Z,1016.14
2017-08-14T05:19:33.864Z,1016.23
2017-08-14T05:20:43.787Z,1016.19
2017-08-14T05:21:53.435Z,1016.21
2017-08-14T05:23:03.363Z,1016.21
2017-08-14T05:24:13.602Z,1016.29
2017-08-14T05:25:23.524Z,1016.28
2017-08-14T05:26:33.150Z,1016.3
2017-08-14T05:27:42.768Z,1016.31
2017-08-14T05:28:52.694Z,1016.25
2017-08-14T05:30:02.622Z,1016.21
2017-08-14T05:31:12.034Z,1016.25
2017-08-14T05:32:22.127Z,1016.22
2017-08-14T05:33:32.059Z,1016.25
2017-08-14T05:34:42.318Z,1016.25
2017-08-14T05:35:51.933Z,1016.26
2017-08-14T05:37:00.934Z,1016.21
2017-08-14T05:38:10.981Z,1016.24
2017-08-14T05:39:20.918Z,1016.28
2017-08-14T05:40:29.912Z,1016.27
2017-08-14T05:41:39.531Z,1016.27
2017-08-14T05:42:49.447Z,1016.28
2017-08-14T05:43:59.736Z,1016.27
2017-08-14T05:45:09.655Z,1016.27
2017-08-14T05:46:19.584Z,1016.3
2017-08-14T05:47:29.520Z,1016.29
2017-08-14T05:48:39.731Z,1016.29
2017-08-14T05:49:49.805Z,1016.28
2017-08-14T05:51:00.044Z,1016.27
2017-08-14T05:52:09.966Z,1016.29
2017-08-14T05:53:19.892Z,1016.3
2017-08-14T05:54:29.213Z,1016.27
2017-08-14T05:55:39.455Z,1016.32
2017-08-14T05:56:49.712Z,1016.35
2017-08-14T05:58:00.421Z,1016.35
2017-08-14T05:59:10.666Z,1016.3
2017-08-14T06:00:20.920Z,1016.32
2017-08-14T06:01:30.710Z,1016.32
2017-08-14T06:02:41.032Z,1016.3
2017-08-14T06:03:50.636Z,1016.26
2017-08-14T06:05:01.375Z,1016.24
2017-08-14T06:06:11.790Z,1016.24
2017-08-14T06:07:21.748Z,1016.31
2017-08-14T06:08:32.166Z,1016.29
2017-08-14T06:09:42.165Z,1016.26
2017-08-14T06:10:53.289Z,1016.25
2017-08-14T06:12:03.232Z,1016.25
2017-08-14T06:13:13.021Z,1016.25
2017-08-14T06:14:23.150Z,1016.26
2017-08-14T06:15:33.411Z,1016.22
2017-08-14T06:16:43.028Z,1016.23
2017-08-14T06:17:52.650Z,1016.2
2017-08-14T06:19:02.762Z,1016.23
2017-08-14T06:20:13.018Z,1016.21
2017-08-14T06:21:22.636Z,1016.24
2017-08-14T06:22:32.258Z,1016.26
2017-08-14T06:23:41.867Z,1016.27
2017-08-14T06:24:52.108Z,1016.21
2017-08-14T06:26:02.034Z,1016.24
2017-08-14T06:27:11.658Z,1016.24
2017-08-14T06:28:21.593Z,1016.22
2017-08-14T06:29:31.512Z,1016.19
2017-08-14T06:30:41.590Z,1016.2
2017-08-14T06:31:51.243Z,1016.23
2017-08-14T06:33:01.179Z,1016.24
2017-08-14T06:34:11.100Z,1016.24
2017-08-14T06:35:21.324Z,1016.26
2017-08-14T06:36:31.552Z,1016.29
2017-08-14T06:37:40.854Z,1016.31
2017-08-14T06:38:51.101Z,1016.32
2017-08-14T06:40:01.327Z,1016.28
2017-08-14T06:41:10.666Z,1016.31
2017-08-14T06:42:20.996Z,1016.31
2017-08-14T06:43:30.925Z,1016.32
2017-08-14T06:44:40.547Z,1016.35
2017-08-14T06:45:50.473Z,1016.31
2017-08-14T06:47:00.390Z,1016.36
2017-08-14T06:48:09.858Z,1016.4
2017-08-14T06:49:19.780Z,1016.41
2017-08-14T06:50:30.006Z,1016.4
2017-08-14T06:51:39.629Z,1016.39
2017-08-14T06:52:49.891Z,1016.38
2017-08-14T06:53:59.581Z,1016.42
2017-08-14T06:55:09.521Z,1016.38
2017-08-14T06:56:19.465Z,1016.38
2017-08-14T06:57:30.850Z,1016.39
2017-08-14T06:58:40.858Z,1016.37
2017-08-14T06:59:50.181Z,1016.35
2017-08-14T07:01:00.415Z,1016.39
2017-08-14T07:02:10.035Z,1016.38
2017-08-14T07:03:19.966Z,1016.38
2017-08-14T07:04:29.937Z,1016.39
2017-08-14T07:05:39.923Z,1016.35
2017-08-14T07:06:49.861Z,1016.34
2017-08-14T07:07:59.796Z,1016.34
2017-08-14T07:09:10.042Z,1016.33
2017-08-14T07:10:20.285Z,1016.32
2017-08-14T07:11:29.635Z,1016.34
2017-08-14T07:12:39.561Z,1016.35
2017-08-14T07:13:49.799Z,1016.31
2017-08-14T07:15:00.039Z,1016.28
2017-08-14T07:16:09.998Z,1016.32
2017-08-14T07:17:20.339Z,1016.26
2017-08-14T07:18:30.596Z,1016.29
2017-08-14T07:19:40.520Z,1016.32
2017-08-14T07:20:50.134Z,1016.33
2017-08-14T07:21:59.760Z,1016.29
2017-08-14T07:23:09.831Z,1016.33
2017-08-14T07:24:20.429Z,1016.31
2017-08-14T07:25:30.036Z,1016.32
2017-08-14T07:26:39.955Z,1016.26
2017-08-14T07:27:49.871Z,1016.27
2017-08-14T07:28:59.798Z,1016.29
2017-08-14T07:30:10.028Z,1016.24
2017-08-14T07:31:19.343Z,1016.21
2017-08-14T07:32:29.296Z,1016.24
2017-08-14T07:33:39.534Z,1016.26
2017-08-14T07:34:49.681Z,1016.22
2017-08-14T07:35:59.949Z,1016.29
2017-08-14T07:37:09.584Z,1016.24
2017-08-14T07:38:18.904Z,1016.19
2017-08-14T07:39:28.839Z,1016.18
2017-08-14T07:40:38.502Z,1016.21
2017-08-14T07:41:48.463Z,1016.19
2017-08-14T07:42:58.743Z,1016.16
2017-08-14T07:44:09.007Z,1016.15
2017-08-14T07:45:18.969Z,1016.16
2017-08-14T07:46:28.954Z,1016.2
2017-08-14T07:47:39.196Z,1016.21
2017-08-14T07:48:48.521Z,1016.14
2017-08-14T07:49:58.441Z,1016.14
2017-08-14T07:51:08.053Z,1016.12
2017-08-14T07:52:17.976Z,1016.12
2017-08-14T07:53:27.908Z,1016.08
2017-08-14T07:54:37.525Z,1016.09
2017-08-14T07:55:47.136Z,1016.09
2017-08-14T07:56:56.757Z,1016.05
2017-08-14T07:58:06.767Z,1016.1
2017-08-14T07:59:17.021Z,1016.11
2017-08-14T08:00:26.937Z,1016.04
2017-08-14T08:01:37.174Z,1016.01
2017-08-14T08:02:46.491Z,1016.03
2017-08-14T08:03:56.764Z,1016.02
2017-08-14T08:05:07.015Z,1015.95
2017-08-14T08:06:16.654Z,1015.97
2017-08-14T08:07:26.899Z,1015.99
2017-08-14T08:08:37.498Z,1015.98
2017-08-14T08:09:47.288Z,1015.91
2017-08-14T08:10:57.520Z,1015.95
2017-08-14T08:12:07.453Z,1015.96
2017-08-14T08:13:17.682Z,1015.91
2017-08-14T08:14:27.619Z,1015.94
2017-08-14T08:15:37.335Z,1015.95
2017-08-14T08:16:46.969Z,1015.96
2017-08-14T08:17:56.587Z,1015.93
2017-08-14T08:19:06.507Z,1015.91
2017-08-14T08:20:16.426Z,1015.95
2017-08-14T08:21:26.421Z,1015.96
2017-08-14T08:22:36.668Z,1016.01
2017-08-14T08:23:46.282Z,1015.95
2017-08-14T08:24:55.586Z,1016.03
2017-08-14T08:26:05.813Z,1016.02
2017-08-14T08:27:16.203Z,1015.98
2017-08-14T08:28:25.811Z,1016.02
2017-08-14T08:29:36.056Z,1015.93
2017-08-14T08:30:46.314Z,1015.94
2017-08-14T08:31:56.556Z,1015.96
2017-08-14T08:33:06.612Z,1015.93
2017-08-14T08:34:16.269Z,1015.9
2017-08-14T08:35:26.514Z,1015.93
2017-08-14T08:36:36.462Z,1015.96
2017-08-14T08:37:46.413Z,1015.94
2017-08-14T08:38:56.730Z,1015.91
2017-08-14T08:40:06.668Z,1015.92
2017-08-14T08:41:16.913Z,1015.91
2017-08-14T08:42:26.853Z,1015.9
2017-08-14T08:43:36.774Z,1015.9
2017-08-14T08:44:46.586Z,1015.89
2017-08-14T08:45:55.897Z,1015.94
2017-08-14T08:47:05.237Z,1015.94
2017-08-14T08:48:15.185Z,1015.94
2017-08-14T08:49:24.805Z,1015.9
2017-08-14T08:50:35.073Z,1015.96
2017-08-14T08:51:45.359Z,1015.94
2017-08-14T08:52:55.315Z,1015.98
2017-08-14T08:54:04.644Z,1015.95
2017-08-14T08:55:14.573Z,1015.92
2017-08-14T08:56:24.831Z,1015.98
2017-08-14T08:57:34.473Z,1015.93
2017-08-14T08:58:44.436Z,1015.93
2017-08-14T08:59:54.708Z,1015.88
2017-08-14T09:01:04.334Z,1015.91
2017-08-14T09:02:14.113Z,1015.86
2017-08-14T09:03:23.775Z,1015.86
2017-08-14T09:04:33.142Z,1015.86
2017-08-14T09:05:43.105Z,1015.84
2017-08-14T09:06:53.021Z,1015.88
2017-08-14T09:08:03.313Z,1015.81
2017-08-14T09:09:13.271Z,1015.79
2017-08-14T09:10:22.583Z,1015.78
2017-08-14T09:11:32.518Z,1015.76
2017-08-14T09:12:42.751Z,1015.81
2017-08-14T09:13:52.546Z,1015.81
2017-08-14T09:15:02.180Z,1015.8
2017-08-14T09:16:12.112Z,1015.78
2017-08-14T09:17:22.062Z,1015.8
2017-08-14T09:18:31.685Z,1015.86
2017-08-14T09:19:41.014Z,1015.8
2017-08-14T09:20:50.673Z,1015.77
2017-08-14T09:22:00.632Z,1015.73
2017-08-14T09:23:09.638Z,1015.73
2017-08-14T09:24:19.900Z,1015.73
2017-08-14T09:25:29.555Z,1015.74
2017-08-14T09:26:39.816Z,1015.77
2017-08-14T09:27:49.452Z,1015.82
2017-08-14T09:28:59.700Z,1015.79
2017-08-14T09:30:09.664Z,1015.77
2017-08-14T09:31:19.954Z,1015.75
2017-08-14T09:32:29.610Z,1015.7
2017-08-14T09:33:39.750Z,1015.74
2017-08-14T09:34:49.429Z,1015.7
2017-08-14T09:35:59.672Z,1015.71
2017-08-14T09:37:09.781Z,1015.68
2017-08-14T09:38:20.028Z,1015.66
2017-08-14T09:39:29.987Z,1015.66
2017-08-14T09:40:39.604Z,1015.66
2017-08-14T09:41:49.537Z,1015.66
2017-08-14T09:42:59.206Z,1015.64
2017-08-14T09:44:09.168Z,1015.61
2017-08-14T09:45:18.798Z,1015.63
2017-08-14T09:46:28.459Z,1015.6
2017-08-14T09:47:38.387Z,1015.61
2017-08-14T09:48:48.161Z,1015.59
2017-08-14T09:49:58.128Z,1015.56
2017-08-14T09:51:07.771Z,1015.55
2017-08-14T09:52:17.436Z,1015.55
2017-08-14T09:53:27.097Z,1015.52
2017-08-14T09:54:37.079Z,1015.45
2017-08-14T09:55:46.413Z,1015.49
2017-08-14T09:56:56.360Z,1015.48
2017-08-14T09:58:06.318Z,1015.49
2017-08-14T09:59:15.971Z,1015.47
2017-08-14T10:00:25.646Z,1015.45
2017-08-14T10:01:35.923Z,1015.45
2017-08-14T10:02:46.254Z,1015.42
2017-08-14T10:03:56.528Z,1015.39
2017-08-14T10:05:06.848Z,1015.38
2017-08-14T10:06:16.988Z,1015.36
2017-08-14T10:07:26.641Z,1015.4
2017-08-14T10:08:36.896Z,1015.34
2017-08-14T10:09:46.537Z,1015.36
2017-08-14T10:10:56.928Z,1015.34
2017-08-14T10:12:06.932Z,1015.35
2017-08-14T10:13:16.917Z,1015.34
2017-08-14T10:14:26.908Z,1015.33
2017-08-14T10:15:36.604Z,1015.32
2017-08-14T10:16:46.984Z,1015.34
2017-08-14T10:17:56.660Z,1015.28
2017-08-14T10:19:06.295Z,1015.26
2017-08-14T10:20:16.271Z,1015.27
2017-08-14T10:21:26.209Z,1015.27
2017-08-14T10:22:36.201Z,1015.24
2017-08-14T10:23:46.219Z,1015.25
2017-08-14T10:24:56.151Z,1015.23
2017-08-14T10:26:05.189Z,1015.26
2017-08-14T10:27:15.130Z,1015.23
2017-08-14T10:28:24.764Z,1015.22
2017-08-14T10:29:35.071Z,1015.2
2017-08-14T10:30:45.318Z,1015.22
2017-08-14T10:31:55.269Z,1015.15
2017-08-14T10:33:05.197Z,1015.16
2017-08-14T10:34:15.461Z,1015.19
2017-08-14T10:35:25.223Z,1015.16
2017-08-14T10:36:35.489Z,1015.16
2017-08-14T10:37:45.731Z,1015.17
2017-08-14T10:38:55.671Z,1015.16
2017-08-14T10:40:06.284Z,1015.16
2017-08-14T10:41:16.016Z,1015.11
2017-08-14T10:42:26.277Z,1015.15
2017-08-14T10:43:36.210Z,1015.12
2017-08-14T10:44:45.855Z,1015.08
2017-08-14T10:45:55.802Z,1015.11
2017-08-14T10:47:05.420Z,1015.11
2017-08-14T10:48:15.042Z,1015.13
2017-08-14T10:49:24.972Z,1015.09
2017-08-14T10:50:34.601Z,1015.09
2017-08-14T10:51:44.820Z,1015.1
2017-08-14T10:52:55.380Z,1015.08
2017-08-14T10:54:05.609Z,1015.02
2017-08-14T10:55:15.533Z,1015.08
2017-08-14T10:56:25.809Z,1015.05
2017-08-14T10:57:35.731Z,1015.03
2017-08-14T10:58:45.807Z,1014.97
2017-08-14T10:59:55.430Z,1014.95
2017-08-14T11:01:05.814Z,1015.01
2017-08-14T11:02:16.050Z,1014.93
2017-08-14T11:03:26.025Z,1014.95
2017-08-14T11:04:36.192Z,1014.93
2017-08-14T11:05:45.824Z,1014.91
2017-08-14T11:06:56.055Z,1014.89
2017-08-14T11:08:06.289Z,1014.9
2017-08-14T11:09:15.908Z,1014.88
2017-08-14T11:10:25.898Z,1014.87
2017-08-14T11:11:36.134Z,1014.84
2017-08-14T11:12:46.053Z,1014.84
2017-08-14T11:13:56.308Z,1014.86
2017-08-14T11:15:06.241Z,1014.83
2017-08-14T11:16:16.604Z,1014.79
2017-08-14T11:17:26.275Z,1014.81
2017-08-14T11:18:36.222Z,1014.82
2017-08-14T11:19:46.192Z,1014.8
2017-08-14T11:20:56.445Z,1014.8
2017-08-14T11:22:06.235Z,1014.77
2017-08-14T11:23:15.858Z,1014.75
2017-08-14T11:24:25.794Z,1014.75
2017-08-14T11:25:35.431Z,1014.71
2017-08-14T11:26:45.431Z,1014.73
2017-08-14T11:27:55.857Z,1014.72
2017-08-14T11:29:05.797Z,1014.7
2017-08-14T11:30:15.757Z,1014.66
2017-08-14T11:31:25.377Z,1014.58
2017-08-14T11:32:34.702Z,1014.59
2017-08-14T11:33:44.663Z,1014.56
2017-08-14T11:34:54.288Z,1014.54
2017-08-14T11:36:04.241Z,1014.56
2017-08-14T11:37:14.173Z,1014.48
2017-08-14T11:38:23.814Z,1014.49
2017-08-14T11:39:33.621Z,1014.5
2017-08-14T11:40:43.558Z,1014.47
2017-08-14T11:41:53.793Z,1014.46
2017-08-14T11:43:04.036Z,1014.47
2017-08-14T11:44:14.296Z,1014.47
2017-08-14T11:45:24.555Z,1014.4
2017-08-14T11:46:34.188Z,1014.46
2017-08-14T11:47:44.429Z,1014.4
2017-08-14T11:48:54.078Z,1014.43
2017-08-14T11:50:04.013Z,1014.41
2017-08-14T11:51:13.952Z,1014.39
2017-08-14T11:52:23.286Z,1014.38
2017-08-14T11:53:33.520Z,1014.33
2017-08-14T11:54:43.557Z,1014.32
2017-08-14T11:55:53.799Z,1014.36
2017-08-14T11:57:03.587Z,1014.31
2017-08-14T11:58:13.220Z,1014.27
2017-08-14T11:59:23.185Z,1014.28
2017-08-14T12:00:32.809Z,1014.23
2017-08-14T12:01:42.420Z,1014.22
2017-08-14T12:02:52.507Z,1014.18
2017-08-14T12:04:02.756Z,1014.23
2017-08-14T12:05:13.092Z,1014.18
2017-08-14T12:06:23.035Z,1014.16
2017-08-14T12:07:33.292Z,1014.09
2017-08-14T12:08:42.293Z,1014.13
2017-08-14T12:09:52.575Z,1014.09
2017-08-14T12:11:01.999Z,1014.09
2017-08-14T12:12:11.614Z,1014.11
2017-08-14T12:13:20.941Z,1014.06
2017-08-14T12:14:30.724Z,1014.12
2017-08-14T12:15:40.433Z,1014.03
2017-08-14T12:16:50.372Z,1014.06
2017-08-14T12:18:01.018Z,1014.06
2017-08-14T12:19:11.287Z,1014.04
2017-08-14T12:20:21.262Z,1014.06
2017-08-14T12:21:31.517Z,1014.05
2017-08-14T12:22:41.447Z,1014.01
2017-08-14T12:23:50.763Z,1014.02
2017-08-14T12:25:00.410Z,1014.03
2017-08-14T12:26:10.655Z,1014.03
2017-08-14T12:27:20.594Z,1014
2017-08-14T12:28:30.521Z,1013.97
2017-08-14T12:29:39.832Z,1013.99
2017-08-14T12:30:49.775Z,1014.04
2017-08-14T12:31:59.455Z,1014.07
2017-08-14T12:33:08.764Z,1014.01
2017-08-14T12:34:18.386Z,1014.02
2017-08-14T12:35:27.695Z,1013.98
2017-08-14T12:36:37.936Z,1013.94
2017-08-14T12:37:47.659Z,1013.93
2017-08-14T12:38:57.708Z,1013.96
2017-08-14T12:40:07.847Z,1013.95
2017-08-14T12:41:17.548Z,1013.94
2017-08-14T12:42:27.472Z,1013.95
2017-08-14T12:43:37.187Z,1013.93
2017-08-14T12:44:47.419Z,1013.92
2017-08-14T12:45:57.030Z,1013.94
2017-08-14T12:47:06.961Z,1013.87
2017-08-14T12:48:16.283Z,1013.88
2017-08-14T12:49:26.327Z,1013.87
2017-08-14T12:50:35.643Z,1013.79
2017-08-14T12:51:45.278Z,1013.77
2017-08-14T12:52:54.908Z,1013.74
2017-08-14T12:54:04.527Z,1013.77
2017-08-14T12:55:14.567Z,1013.72
2017-08-14T12:56:24.200Z,1013.74
2017-08-14T12:57:34.126Z,1013.76
2017-08-14T12:58:44.068Z,1013.67
2017-08-14T12:59:53.705Z,1013.64
2017-08-14T13:01:03.744Z,1013.62
2017-08-14T13:02:13.361Z,1013.66
2017-08-14T13:03:23.278Z,1013.61
2017-08-14T13:04:33.500Z,1013.65
2017-08-14T13:05:43.731Z,1013.6
2017-08-14T13:06:53.657Z,1013.61
2017-08-14T13:08:02.971Z,1013.61
2017-08-14T13:09:12.589Z,1013.56
2017-08-14T13:10:22.521Z,1013.55
2017-08-14T13:11:32.748Z,1013.54
2017-08-14T13:12:42.207Z,1013.51
2017-08-14T13:13:52.142Z,1013.5
2017-08-14T13:15:02.385Z,1013.44
2017-08-14T13:16:12.630Z,1013.44
2017-08-14T13:17:22.847Z,1013.52
2017-08-14T13:18:32.921Z,1013.48
2017-08-14T13:19:42.843Z,1013.42
2017-08-14T13:20:52.761Z,1013.45
2017-08-14T13:22:02.677Z,1013.41
2017-08-14T13:23:12.286Z,1013.43
2017-08-14T13:24:22.361Z,1013.42
2017-08-14T13:25:31.988Z,1013.41
2017-08-14T13:26:41.923Z,1013.36
2017-08-14T13:27:51.896Z,1013.38
2017-08-14T13:29:01.533Z,1013.36
2017-08-14T13:30:11.844Z,1013.34
2017-08-14T13:31:22.092Z,1013.32
2017-08-14T13:32:31.447Z,1013.34
2017-08-14T13:33:41.681Z,1013.32
2017-08-14T13:34:51.940Z,1013.33
2017-08-14T13:36:02.222Z,1013.3
2017-08-14T13:37:11.855Z,1013.32
2017-08-14T13:38:21.789Z,1013.28
2017-08-14T13:39:31.740Z,1013.28
2017-08-14T13:40:41.735Z,1013.27
2017-08-14T13:41:51.840Z,1013.2
2017-08-14T13:43:01.498Z,1013.23
2017-08-14T13:44:11.170Z,1013.21
2017-08-14T13:45:21.480Z,1013.22
2017-08-14T13:46:31.138Z,1013.22
2017-08-14T13:47:41.372Z,1013.18
2017-08-14T13:48:51.296Z,1013.19
2017-08-14T13:50:00.623Z,1013.16
2017-08-14T13:51:10.240Z,1013.11
2017-08-14T13:52:20.169Z,1013.16
2017-08-14T13:53:30.451Z,1013.15
2017-08-14T13:54:39.763Z,1013.15
2017-08-14T13:55:49.376Z,1013.17
2017-08-14T13:56:59.309Z,1013.14
2017-08-14T13:58:09.544Z,1013.16
2017-08-14T13:59:19.026Z,1013.15
2017-08-14T14:00:28.652Z,1013.12
2017-08-14T14:01:38.993Z,1013.12
2017-08-14T14:02:48.912Z,1013.11
2017-08-14T14:03:59.160Z,1013.07
2017-08-14T14:05:08.835Z,1013.06
2017-08-14T14:06:18.755Z,1013.07
2017-08-14T14:07:28.697Z,1013.05
2017-08-14T14:08:38.962Z,1013.05